createdAt,value
2019-01-20T00:08:28.458Z,16.17
2019-01-20T00:10:32.982Z,15.00
2019-01-20T00:12:37.318Z,15.97
2019-01-20T00:14:53.349Z,15.60
2019-01-20T00:30:47.957Z,18.10
2019-01-20T00:44:18.226Z,13.40
2019-01-20T00:54:21.555Z,13.60
2019-01-20T01:08:03.142Z,12.07
2019-01-20T01:10:18.243Z,12.00
2019-01-20T02:38:03.233Z,10.70
2019-01-20T07:57:44.686Z,9.00
2019-01-20T08:37:44.180Z,51.00
2019-01-20T08:39:48.778Z,25.17
2019-01-20T08:41:54.335Z,10.10
2019-01-20T08:49:25.682Z,624.50
2019-01-20T08:51:33.083Z,1030.37
2019-01-20T08:53:38.709Z,541.40
2019-01-20T08:55:43.879Z,809.63
2019-01-20T09:01:07.780Z,24.50
2019-01-20T09:03:19.819Z,16.03
2019-01-20T09:05:25.773Z,16.47
2019-01-20T09:07:52.229Z,96.43
2019-01-20T09:22:56.206Z,878.20
2019-01-20T09:28:22.861Z,277.50
2019-01-20T09:32:24.319Z,41.63
2019-01-20T09:34:28.677Z,740.43
2019-01-20T09:36:34.425Z,438.63
2019-01-20T09:38:42.281Z,720.70
2019-01-20T09:40:57.279Z,978.87
2019-01-20T09:43:04.619Z,864.43
2019-01-20T09:45:23.923Z,538.57
2019-01-20T09:47:29.807Z,181.07
2019-01-20T09:49:34.304Z,41.23
2019-01-20T09:51:43.151Z,27.17
2019-01-20T09:53:50.643Z,437.20
2019-01-20T09:55:56.052Z,781.50
2019-01-20T09:58:02.138Z,1245.57
2019-01-20T10:00:11.949Z,1147.70
2019-01-20T10:02:18.520Z,771.27
2019-01-20T10:04:23.500Z,985.50
2019-01-20T10:06:32.771Z,615.07
2019-01-20T10:08:45.593Z,341.40
2019-01-20T10:11:03.392Z,80.73
2019-01-20T10:13:09.026Z,33.00
2019-01-20T10:15:15.114Z,22.20
2019-01-20T10:17:19.304Z,19.40
2019-01-20T10:19:25.212Z,21.37
2019-01-20T10:21:31.798Z,15.63
2019-01-20T10:27:21.304Z,25.53
2019-01-20T11:01:33.521Z,272.07
2019-01-20T11:11:56.587Z,702.77
2019-01-20T11:14:09.618Z,558.73
2019-01-20T11:16:11.899Z,316.23
2019-01-20T11:18:16.213Z,136.20
2019-01-20T11:20:20.972Z,53.13
2019-01-20T12:27:38.385Z,569.73
2019-01-20T12:29:52.025Z,501.87
2019-01-20T12:31:56.127Z,328.90
2019-01-20T12:34:01.715Z,170.80
2019-01-20T12:36:06.200Z,429.27
2019-01-20T12:38:10.368Z,359.63
2019-01-20T12:56:34.250Z,196.03
2019-01-20T13:04:06.462Z,983.97
2019-01-20T13:09:47.077Z,416.63
2019-01-20T13:14:27.975Z,88.73
2019-01-20T13:16:32.641Z,40.00
2019-01-20T13:18:37.494Z,24.47
2019-01-20T13:20:48.555Z,145.67
2019-01-20T13:23:00.346Z,345.57
2019-01-20T13:25:06.691Z,870.30
2019-01-20T13:27:11.979Z,57.63
2019-01-20T13:29:16.865Z,48.60
2019-01-20T13:31:21.429Z,71.93
2019-01-20T13:33:25.746Z,19.53
2019-01-20T13:35:30.258Z,18.93
2019-01-20T13:37:34.477Z,15.40
2019-01-20T13:39:38.741Z,14.10
2019-01-20T13:41:43.632Z,16.10
2019-01-20T13:43:50.112Z,252.33
2019-01-20T13:45:56.133Z,678.20
2019-01-20T13:48:04.860Z,30.50
2019-01-20T13:50:12.648Z,18.50
2019-01-20T13:52:18.515Z,541.30
2019-01-20T13:57:30.576Z,18.67
2019-01-20T13:59:36.385Z,16.00
2019-01-20T14:01:42.202Z,24.20
2019-01-20T14:30:58.026Z,12.40
2019-01-20T14:33:18.755Z,13.70
2019-01-20T14:41:54.200Z,11.83
2019-01-20T14:51:04.111Z,12.00
2019-01-20T15:14:25.662Z,13.17
2019-01-20T15:16:29.996Z,12.83
2019-01-20T15:18:34.919Z,13.27
2019-01-20T15:20:40.177Z,13.73
2019-01-20T15:22:44.528Z,13.73
2019-01-20T15:24:48.842Z,13.73
2019-01-20T15:26:53.481Z,14.37
2019-01-20T15:29:01.246Z,12.53
2019-01-20T15:39:25.594Z,14.87
2019-01-20T15:49:32.993Z,12.57
2019-01-20T15:51:40.608Z,13.27
2019-01-20T15:53:51.300Z,13.40
2019-01-20T16:08:07.648Z,12.10
2019-01-20T16:15:28.122Z,12.03
2019-01-20T16:17:34.578Z,11.53
2019-01-20T16:19:39.109Z,12.00
2019-01-20T16:21:46.909Z,11.33
2019-01-20T16:23:53.879Z,11.47
2019-01-20T16:26:00.738Z,12.47
2019-01-20T16:28:06.269Z,11.80
2019-01-20T16:30:15.742Z,10.97
2019-01-20T16:32:20.385Z,11.23
2019-01-20T16:34:26.172Z,11.83
2019-01-20T16:36:32.149Z,13.07
2019-01-20T16:38:40.236Z,13.03
2019-01-20T16:40:47.120Z,11.97
2019-01-20T16:43:06.544Z,11.43
2019-01-20T16:45:21.382Z,190.33
2019-01-20T16:47:26.449Z,605.20
2019-01-20T17:02:03.774Z,776.57
2019-01-20T17:04:12.883Z,849.97
2019-01-20T17:06:18.648Z,434.93
2019-01-20T17:08:23.025Z,673.37
2019-01-20T17:10:31.432Z,607.83
2019-01-20T17:12:36.479Z,488.43
